Kezdőlap
METAR-TAF:

METAR-TAF

Repülőterek :

Kokomo Municipal Airport

Kokomo, Indiana, Amerikai Egyesült Államok

földrajzi szélesség: 40-32N, földrajzi hosszúság: 086-04W, magasság: 253 m

Jelenlegi meteorológiai megfigyelések

A jelentés 52 perccel ezelõtt készült, 08:56 UTC
Szélcsend
Hőmérséklet 17°C
Páratartalom 100%
Légköri nyomás 1020 hPa
Látótávolság: 16.1 km
Derült ég

METAR: KOKK 210856Z AUTO 00000KT 10SM CLR 17/17 A3012 RMK AO2 SLP198 T01720167 55003

Idő: 05:48 (09:48 UTC)


TAF: hiányzik

Meteorológiai megfigyelések és előrejelzések több, mint 4000 repülőtéren (METAR és TAF jelentéseket).

A térképen piros és sárga pontok jelzik az elérhető meteorológiai állomásokat.

Mozgassa az egeret a pont fölött, hogy megjelenjen az állomás neve.

Azután kattintson az időjárási megfigyelések és előrejelzések megtekintéséhez.

A térkép megváltoztatása: kattintson a fekete keresztel jelölt zöld gombra ráközelítéshez, a vonallal jelölt zöld gombra távolításhoz, vagy a zöld nyilakra a szomszédos térképek eléréséhez.


METAR-TAF: